sensor_id;sensor_type;location;lat;lon;timestamp;pressure;altitude;pressure_sealevel;temperature
64394;BMP280;50712;49.506;10.400;2022-07-01T00:00:15;97891.22;;;25.75
64394;BMP280;50712;49.506;10.400;2022-07-01T00:00:45;97895.31;;;25.74
64394;BMP280;50712;49.506;10.400;2022-07-01T00:01:16;97892.53;;;25.74
64394;BMP280;50712;49.506;10.400;2022-07-01T00:01:46;97893.09;;;25.73
64394;BMP280;50712;49.506;10.400;2022-07-01T00:02:17;97886.00;;;25.72
64394;BMP280;50712;49.506;10.400;2022-07-01T00:02:48;97888.78;;;25.72
64394;BMP280;50712;49.506;10.400;2022-07-01T00:03:18;97892.16;;;25.70
64394;BMP280;50712;49.506;10.400;2022-07-01T00:03:49;97892.69;;;25.68
64394;BMP280;50712;49.506;10.400;2022-07-01T00:04:19;97891.78;;;25.66
64394;BMP280;50712;49.506;10.400;2022-07-01T00:04:50;97893.06;;;25.65
64394;BMP280;50712;49.506;10.400;2022-07-01T00:05:40;97894.16;;;25.62
64394;BMP280;50712;49.506;10.400;2022-07-01T00:06:10;97893.41;;;25.61
64394;BMP280;50712;49.506;10.400;2022-07-01T00:06:40;97896.03;;;25.59
64394;BMP280;50712;49.506;10.400;2022-07-01T00:07:11;97898.09;;;25.59
64394;BMP280;50712;49.506;10.400;2022-07-01T00:07:41;97909.59;;;25.55
64394;BMP280;50712;49.506;10.400;2022-07-01T00:08:12;97904.78;;;25.56
64394;BMP280;50712;49.506;10.400;2022-07-01T00:08:42;97908.69;;;25.53
64394;BMP280;50712;49.506;10.400;2022-07-01T00:09:13;97908.69;;;25.53
64394;BMP280;50712;49.506;10.400;2022-07-01T00:09:43;97909.25;;;25.51
64394;BMP280;50712;49.506;10.400;2022-07-01T00:10:14;97910.56;;;25.50
64394;BMP280;50712;49.506;10.400;2022-07-01T00:10:45;97907.53;;;25.48
64394;BMP280;50712;49.506;10.400;2022-07-01T00:11:15;97907.53;;;25.48
64394;BMP280;50712;49.506;10.400;2022-07-01T00:11:46;97916.66;;;25.49
64394;BMP280;50712;49.506;10.400;2022-07-01T00:12:17;97911.66;;;25.47
64394;BMP280;50712;49.506;10.400;2022-07-01T00:12:47;97912.19;;;25.46
64394;BMP280;50712;49.506;10.400;2022-07-01T00:13:18;97912.94;;;25.46
64394;BMP280;50712;49.506;10.400;2022-07-01T00:13:48;97919.81;;;25.45
64394;BMP280;50712;49.506;10.400;2022-07-01T00:14:18;97915.56;;;25.44
64394;BMP280;50712;49.506;10.400;2022-07-01T00:14:49;97925.97;;;25.44
64394;BMP280;50712;49.506;10.400;2022-07-01T00:15:19;97927.09;;;25.41
64394;BMP280;50712;49.506;10.400;2022-07-01T00:15:50;97917.22;;;25.40
64394;BMP280;50712;49.506;10.400;2022-07-01T00:16:20;97928.19;;;25.38
64394;BMP280;50712;49.506;10.400;2022-07-01T00:16:51;97925.94;;;25.36
64394;BMP280;50712;49.506;10.400;2022-07-01T00:17:21;97925.75;;;25.34
64394;BMP280;50712;49.506;10.400;2022-07-01T00:17:51;97922.03;;;25.32
64394;BMP280;50712;49.506;10.400;2022-07-01T00:18:22;97917.56;;;25.29
64394;BMP280;50712;49.506;10.400;2022-07-01T00:18:53;97920.91;;;25.27
64394;BMP280;50712;49.506;10.400;2022-07-01T00:19:24;97929.06;;;25.25
64394;BMP280;50712;49.506;10.400;2022-07-01T00:19:55;97925.31;;;25.23
64394;BMP280;50712;49.506;10.400;2022-07-01T00:20:25;97925.16;;;25.21
64394;BMP280;50712;49.506;10.400;2022-07-01T00:20:55;97927.00;;;25.18
64394;BMP280;50712;49.506;10.400;2022-07-01T00:21:26;97928.84;;;25.16
64394;BMP280;50712;49.506;10.400;2022-07-01T00:21:56;97923.63;;;25.12
64394;BMP280;50712;49.506;10.400;2022-07-01T00:22:27;97923.44;;;25.10
64394;BMP280;50712;49.506;10.400;2022-07-01T00:22:57;97928.81;;;25.08
64394;BMP280;50712;49.506;10.400;2022-07-01T00:23:28;97931.78;;;25.03
64394;BMP280;50712;49.506;10.400;2022-07-01T00:23:59;97932.88;;;25.00
64394;BMP280;50712;49.506;10.400;2022-07-01T00:24:29;97932.66;;;24.98
64394;BMP280;50712;49.506;10.400;2022-07-01T00:24:59;97933.22;;;24.96
64394;BMP280;50712;49.506;10.400;2022-07-01T00:25:30;97930.97;;;24.95
64394;BMP280;50712;49.506;10.400;2022-07-01T00:26:01;97932.81;;;24.92
64394;BMP280;50712;49.506;10.400;2022-07-01T00:26:31;97934.09;;;24.91
64394;BMP280;50712;49.506;10.400;2022-07-01T00:27:02;97931.16;;;24.89
64394;BMP280;50712;49.506;10.400;2022-07-01T00:27:32;97928.91;;;24.88
64394;BMP280;50712;49.506;10.400;2022-07-01T00:28:03;97925.41;;;24.87
64394;BMP280;50712;49.506;10.400;2022-07-01T00:28:34;97930.22;;;24.87
64394;BMP280;50712;49.506;10.400;2022-07-01T00:29:04;97923.13;;;24.86
64394;BMP280;50712;49.506;10.400;2022-07-01T00:29:34;97927.19;;;24.85
64394;BMP280;50712;49.506;10.400;2022-07-01T00:30:05;97928.53;;;24.84
64394;BMP280;50712;49.506;10.400;2022-07-01T00:30:37;97926.47;;;24.84
64394;BMP280;50712;49.506;10.400;2022-07-01T00:31:08;97922.97;;;24.84
64394;BMP280;50712;49.506;10.400;2022-07-01T00:31:38;97916.63;;;24.83
64394;BMP280;50712;49.506;10.400;2022-07-01T00:32:09;97922.72;;;24.82
64394;BMP280;50712;49.506;10.400;2022-07-01T00:32:39;97917.72;;;24.80
64394;BMP280;50712;49.506;10.400;2022-07-01T00:33:09;97914.75;;;24.78
64394;BMP280;50712;49.506;10.400;2022-07-01T00:33:40;97923.66;;;24.77
64394;BMP280;50712;49.506;10.400;2022-07-01T00:34:10;97924.19;;;24.75
64394;BMP280;50712;49.506;10.400;2022-07-01T00:34:40;97924.00;;;24.73
64394;BMP280;50712;49.506;10.400;2022-07-01T00:35:11;97925.84;;;24.71
64394;BMP280;50712;49.506;10.400;2022-07-01T00:35:41;97927.91;;;24.70
64394;BMP280;50712;49.506;10.400;2022-07-01T00:36:11;97931.22;;;24.69
64394;BMP280;50712;49.506;10.400;2022-07-01T00:36:42;97940.13;;;24.67
64394;BMP280;50712;49.506;10.400;2022-07-01T00:37:12;97934.53;;;24.67
64394;BMP280;50712;49.506;10.400;2022-07-01T00:37:42;97942.16;;;24.67
64394;BMP280;50712;49.506;10.400;2022-07-01T00:38:13;97941.97;;;24.65
64394;BMP280;50712;49.506;10.400;2022-07-01T00:38:43;97937.69;;;24.64
64394;BMP280;50712;49.506;10.400;2022-07-01T00:39:14;97954.41;;;24.64
64394;BMP280;50712;49.506;10.400;2022-07-01T00:39:44;97949.41;;;24.62
64394;BMP280;50712;49.506;10.400;2022-07-01T00:40:15;97951.94;;;24.60
64394;BMP280;50712;49.506;10.400;2022-07-01T00:40:50;97957.34;;;24.58
64394;BMP280;50712;49.506;10.400;2022-07-01T00:41:21;97959.38;;;24.58
64394;BMP280;50712;49.506;10.400;2022-07-01T00:41:52;97955.09;;;24.57
64394;BMP280;50712;49.506;10.400;2022-07-01T00:42:22;97971.81;;;24.57
64394;BMP280;50712;49.506;10.400;2022-07-01T00:42:53;97977.19;;;24.55
64394;BMP280;50712;49.506;10.400;2022-07-01T00:43:23;97970.88;;;24.54
64394;BMP280;50712;49.506;10.400;2022-07-01T00:43:54;97966.59;;;24.53
64394;BMP280;50712;49.506;10.400;2022-07-01T00:44:27;97977.00;;;24.53
64394;BMP280;50712;49.506;10.400;2022-07-01T00:44:58;97977.00;;;24.53
64394;BMP280;50712;49.506;10.400;2022-07-01T00:45:28;97987.41;;;24.52
64394;BMP280;50712;49.506;10.400;2022-07-01T00:45:58;97981.84;;;24.52
64394;BMP280;50712;49.506;10.400;2022-07-01T00:46:29;97996.50;;;24.53
64394;BMP280;50712;49.506;10.400;2022-07-01T00:47:01;97996.50;;;24.53
64394;BMP280;50712;49.506;10.400;2022-07-01T00:47:38;97996.50;;;24.53
64394;BMP280;50712;49.506;10.400;2022-07-01T00:48:10;98000.03;;;24.53
64394;BMP280;50712;49.506;10.400;2022-07-01T00:48:40;98003.53;;;24.54
64394;BMP280;50712;49.506;10.400;2022-07-01T00:49:11;98002.81;;;24.53
64394;BMP280;50712;49.506;10.400;2022-07-01T00:49:41;98000.75;;;24.54
64394;BMP280;50712;49.506;10.400;2022-07-01T00:50:13;98005.81;;;24.55
64394;BMP280;50712;49.506;10.400;2022-07-01T00:50:44;98002.28;;;24.55
64394;BMP280;50712;49.506;10.400;2022-07-01T00:51:16;98003.53;;;24.54
64394;BMP280;50712;49.506;10.400;2022-07-01T00:51:48;97999.31;;;24.53
64394;BMP280;50712;49.506;10.400;2022-07-01T00:52:18;97999.06;;;24.51
64394;BMP280;50712;49.506;10.400;2022-07-01T00:52:48;98005.22;;;24.49
64394;BMP280;50712;49.506;10.400;2022-07-01T00:53:19;98002.19;;;24.47
64394;BMP280;50712;49.506;10.400;2022-07-01T00:53:49;97999.22;;;24.45
64394;BMP280;50712;49.506;10.400;2022-07-01T00:54:20;97999.56;;;24.42
64394;BMP280;50712;49.506;10.400;2022-07-01T00:54:51;97999.34;;;24.40
64394;BMP280;50712;49.506;10.400;2022-07-01T00:55:23;98008.06;;;24.36
64394;BMP280;50712;49.506;10.400;2022-07-01T00:55:54;97998.75;;;24.34
64394;BMP280;50712;49.506;10.400;2022-07-01T00:56:24;98003.38;;;24.31
64394;BMP280;50712;49.506;10.400;2022-07-01T00:56:55;98001.13;;;24.29
64394;BMP280;50712;49.506;10.400;2022-07-01T00:57:29;98010.03;;;24.28
64394;BMP280;50712;49.506;10.400;2022-07-01T00:58:01;98013.38;;;24.26
64394;BMP280;50712;49.506;10.400;2022-07-01T00:58:31;98007.59;;;24.24
64394;BMP280;50712;49.506;10.400;2022-07-01T00:59:01;98010.91;;;24.23
64394;BMP280;50712;49.506;10.400;2022-07-01T00:59:32;98005.88;;;24.21
64394;BMP280;50712;49.506;10.400;2022-07-01T01:00:08;98009.97;;;24.20
64394;BMP280;50712;49.506;10.400;2022-07-01T01:00:41;98009.97;;;24.20
64394;BMP280;50712;49.506;10.400;2022-07-01T01:01:11;98007.94;;;24.21
64394;BMP280;50712;49.506;10.400;2022-07-01T01:01:42;98007.19;;;24.20
64394;BMP280;50712;49.506;10.400;2022-07-01T01:02:12;98011.78;;;24.18
64394;BMP280;50712;49.506;10.400;2022-07-01T01:02:43;98004.75;;;24.17
64394;BMP280;50712;49.506;10.400;2022-07-01T01:03:13;98001.19;;;24.16
64394;BMP280;50712;49.506;10.400;2022-07-01T01:03:44;98010.06;;;24.15
64394;BMP280;50712;49.506;10.400;2022-07-01T01:04:14;98008.03;;;24.15
64394;BMP280;50712;49.506;10.400;2022-07-01T01:04:44;98001.03;;;24.14
64394;BMP280;50712;49.506;10.400;2022-07-01T01:05:15;98007.88;;;24.13
64394;BMP280;50712;49.506;10.400;2022-07-01T01:05:47;97999.50;;;24.13
64394;BMP280;50712;49.506;10.400;2022-07-01T01:06:19;98007.69;;;24.11
64394;BMP280;50712;49.506;10.400;2022-07-01T01:06:49;98001.34;;;24.11
64394;BMP280;50712;49.506;10.400;2022-07-01T01:07:19;98009.72;;;24.11
64394;BMP280;50712;49.506;10.400;2022-07-01T01:07:50;98007.69;;;24.11
64394;BMP280;50712;49.506;10.400;2022-07-01T01:08:21;98009.72;;;24.11
64394;BMP280;50712;49.506;10.400;2022-07-01T01:08:51;98008.38;;;24.12
64394;BMP280;50712;49.506;10.400;2022-07-01T01:09:22;98016.72;;;24.12
64394;BMP280;50712;49.506;10.400;2022-07-01T01:09:52;98012.50;;;24.11
64394;BMP280;50712;49.506;10.400;2022-07-01T01:10:23;98007.69;;;24.11
64394;BMP280;50712;49.506;10.400;2022-07-01T01:10:56;98009.72;;;24.11
64394;BMP280;50712;49.506;10.400;2022-07-01T01:11:26;98010.22;;;24.09
64394;BMP280;50712;49.506;10.400;2022-07-01T01:11:57;98016.34;;;24.08
64394;BMP280;50712;49.506;10.400;2022-07-01T01:12:28;98012.81;;;24.07
64394;BMP280;50712;49.506;10.400;2022-07-01T01:12:59;98009.28;;;24.07
64394;BMP280;50712;49.506;10.400;2022-07-01T01:13:29;98012.06;;;24.07
64394;BMP280;50712;49.506;10.400;2022-07-01T01:14:00;98006.50;;;24.07
64394;BMP280;50712;49.506;10.400;2022-07-01T01:14:42;98006.50;;;24.07
64394;BMP280;50712;49.506;10.400;2022-07-01T01:15:18;98004.47;;;24.07
64394;BMP280;50712;49.506;10.400;2022-07-01T01:15:49;97995.38;;;24.07
64394;BMP280;50712;49.506;10.400;2022-07-01T01:16:20;97987.00;;;24.07
64394;BMP280;50712;49.506;10.400;2022-07-01T01:16:52;97989.03;;;24.06
64394;BMP280;50712;49.506;10.400;2022-07-01T01:17:23;97983.25;;;24.04
64394;BMP280;50712;49.506;10.400;2022-07-01T01:17:54;97981.78;;;24.03
64394;BMP280;50712;49.506;10.400;2022-07-01T01:18:24;97971.72;;;24.00
64394;BMP280;50712;49.506;10.400;2022-07-01T01:18:55;97980.41;;;23.97
64394;BMP280;50712;49.506;10.400;2022-07-01T01:19:26;97967.38;;;23.92
64394;BMP280;50712;49.506;10.400;2022-07-01T01:19:56;97957.84;;;23.87
64394;BMP280;50712;49.506;10.400;2022-07-01T01:20:31;97951.88;;;23.83
64394;BMP280;50712;49.506;10.400;2022-07-01T01:21:02;97939.38;;;23.77
64394;BMP280;50712;49.506;10.400;2022-07-01T01:21:33;97941.03;;;23.72
64394;BMP280;50712;49.506;10.400;2022-07-01T01:22:04;97938.59;;;23.69
64394;BMP280;50712;49.506;10.400;2022-07-01T01:22:34;97933.34;;;23.65
64394;BMP280;50712;49.506;10.400;2022-07-01T01:23:05;97930.88;;;23.62
64394;BMP280;50712;49.506;10.400;2022-07-01T01:23:35;97928.41;;;23.58
64394;BMP280;50712;49.506;10.400;2022-07-01T01:24:07;97919.72;;;23.54
64394;BMP280;50712;49.506;10.400;2022-07-01T01:24:38;97921.50;;;23.52
64394;BMP280;50712;49.506;10.400;2022-07-01T01:25:09;97917.00;;;23.49
64394;BMP280;50712;49.506;10.400;2022-07-01T01:25:39;97923.16;;;23.47
64394;BMP280;50712;49.506;10.400;2022-07-01T01:26:20;97927.75;;;23.45
64394;BMP280;50712;49.506;10.400;2022-07-01T01:26:51;97926.03;;;23.42
64394;BMP280;50712;49.506;10.400;2022-07-01T01:27:21;97932.13;;;23.40
64394;BMP280;50712;49.506;10.400;2022-07-01T01:27:52;97935.97;;;23.37
64394;BMP280;50712;49.506;10.400;2022-07-01T01:28:23;97934.28;;;23.34
64394;BMP280;50712;49.506;10.400;2022-07-01T01:28:54;97938.34;;;23.33
64394;BMP280;50712;49.506;10.400;2022-07-01T01:29:25;97946.50;;;23.31
64394;BMP280;50712;49.506;10.400;2022-07-01T01:29:56;97942.97;;;23.31
64394;BMP280;50712;49.506;10.400;2022-07-01T01:30:26;97943.50;;;23.29
64394;BMP280;50712;49.506;10.400;2022-07-01T01:30:57;97954.41;;;23.27
64394;BMP280;50712;49.506;10.400;2022-07-01T01:31:31;97951.44;;;23.25
64394;BMP280;50712;49.506;10.400;2022-07-01T01:32:06;97953.97;;;23.23
64394;BMP280;50712;49.506;10.400;2022-07-01T01:32:36;97958.81;;;23.23
64394;BMP280;50712;49.506;10.400;2022-07-01T01:33:07;97960.09;;;23.22
64394;BMP280;50712;49.506;10.400;2022-07-01T01:33:38;97949.50;;;23.20
64394;BMP280;50712;49.506;10.400;2022-07-01T01:34:09;97945.44;;;23.21
64394;BMP280;50712;49.506;10.400;2022-07-01T01:34:39;97938.38;;;23.20
64394;BMP280;50712;49.506;10.400;2022-07-01T01:35:10;97937.09;;;23.21
64394;BMP280;50712;49.506;10.400;2022-07-01T01:35:43;97930.78;;;23.21
64394;BMP280;50712;49.506;10.400;2022-07-01T01:36:13;97933.56;;;23.21
64394;BMP280;50712;49.506;10.400;2022-07-01T01:36:43;97927.25;;;23.20
64394;BMP280;50712;49.506;10.400;2022-07-01T01:37:14;97917.63;;;23.21
64394;BMP280;50712;49.506;10.400;2022-07-01T01:37:44;97915.63;;;23.22
64394;BMP280;50712;49.506;10.400;2022-07-01T01:38:15;97909.50;;;23.23
64394;BMP280;50712;49.506;10.400;2022-07-01T01:38:45;97902.44;;;23.22
64394;BMP280;50712;49.506;10.400;2022-07-01T01:39:15;97899.66;;;23.22
64394;BMP280;50712;49.506;10.400;2022-07-01T01:39:46;97896.16;;;23.22
64394;BMP280;50712;49.506;10.400;2022-07-01T01:40:16;97895.41;;;23.21
64394;BMP280;50712;49.506;10.400;2022-07-01T01:40:47;97887.59;;;23.20
64394;BMP280;50712;49.506;10.400;2022-07-01T01:41:19;97883.84;;;23.17
64394;BMP280;50712;49.506;10.400;2022-07-01T01:41:49;97873.81;;;23.14
64394;BMP280;50712;49.506;10.400;2022-07-01T01:42:19;97874.88;;;23.11
64394;BMP280;50712;49.506;10.400;2022-07-01T01:42:50;97873.16;;;23.08
64394;BMP280;50712;49.506;10.400;2022-07-01T01:43:20;97873.50;;;23.04
64394;BMP280;50712;49.506;10.400;2022-07-01T01:43:51;97871.63;;;22.99
64394;BMP280;50712;49.506;10.400;2022-07-01T01:44:21;97875.44;;;22.96
64394;BMP280;50712;49.506;10.400;2022-07-01T01:44:51;97877.28;;;22.94
64394;BMP280;50712;49.506;10.400;2022-07-01T01:45:22;97863.16;;;22.92
64394;BMP280;50712;49.506;10.400;2022-07-01T01:45:52;97866.50;;;22.90
64394;BMP280;50712;49.506;10.400;2022-07-01T01:46:22;97868.28;;;22.88
64394;BMP280;50712;49.506;10.400;2022-07-01T01:46:53;97869.59;;;22.87
64394;BMP280;50712;49.506;10.400;2022-07-01T01:47:23;97861.78;;;22.85
64394;BMP280;50712;49.506;10.400;2022-07-01T01:47:54;97868.09;;;22.86
64394;BMP280;50712;49.506;10.400;2022-07-01T01:48:24;97858.25;;;22.85
64394;BMP280;50712;49.506;10.400;2022-07-01T01:48:54;97852.16;;;22.86
64394;BMP280;50712;49.506;10.400;2022-07-01T01:49:25;97850.91;;;22.87
64394;BMP280;50712;49.506;10.400;2022-07-01T01:49:55;97853.88;;;22.89
64394;BMP280;50712;49.506;10.400;2022-07-01T01:50:26;97849.81;;;22.90
64394;BMP280;50712;49.506;10.400;2022-07-01T01:50:56;97847.78;;;22.91
64394;BMP280;50712;49.506;10.400;2022-07-01T01:51:27;97852.06;;;22.92
64394;BMP280;50712;49.506;10.400;2022-07-01T01:51:57;97848.75;;;22.93
64394;BMP280;50712;49.506;10.400;2022-07-01T01:52:29;97852.28;;;22.94
64394;BMP280;50712;49.506;10.400;2022-07-01T01:52:59;97849.72;;;22.96
64394;BMP280;50712;49.506;10.400;2022-07-01T01:53:30;97847.66;;;22.96
64394;BMP280;50712;49.506;10.400;2022-07-01T01:54:00;97852.47;;;22.96
64394;BMP280;50712;49.506;10.400;2022-07-01T01:54:31;97858.03;;;22.96
64394;BMP280;50712;49.506;10.400;2022-07-01T01:55:01;97853.75;;;22.95
64394;BMP280;50712;49.506;10.400;2022-07-01T01:55:31;97848.75;;;22.93
64394;BMP280;50712;49.506;10.400;2022-07-01T01:56:02;97859.63;;;22.91
64394;BMP280;50712;49.506;10.400;2022-07-01T01:56:32;97866.50;;;22.90
64394;BMP280;50712;49.506;10.400;2022-07-01T01:57:03;97873.31;;;22.89
64394;BMP280;50712;49.506;10.400;2022-07-01T01:57:34;97873.84;;;22.88
64394;BMP280;50712;49.506;10.400;2022-07-01T01:58:05;97879.41;;;22.88
64394;BMP280;50712;49.506;10.400;2022-07-01T01:58:35;97884.75;;;22.86
64394;BMP280;50712;49.506;10.400;2022-07-01T01:59:06;97890.31;;;22.86
64394;BMP280;50712;49.506;10.400;2022-07-01T01:59:36;97885.31;;;22.84
64394;BMP280;50712;49.506;10.400;2022-07-01T02:00:07;97895.69;;;22.84
64394;BMP280;50712;49.506;10.400;2022-07-01T02:00:41;97896.75;;;22.81
64394;BMP280;50712;49.506;10.400;2022-07-01T02:01:12;97898.78;;;22.80
64394;BMP280;50712;49.506;10.400;2022-07-01T02:01:43;97907.63;;;22.79
64394;BMP280;50712;49.506;10.400;2022-07-01T02:02:13;97908.91;;;22.78
64394;BMP280;50712;49.506;10.400;2022-07-01T02:02:44;97909.47;;;22.76
64394;BMP280;50712;49.506;10.400;2022-07-01T02:03:14;97912.22;;;22.76
64394;BMP280;50712;49.506;10.400;2022-07-01T02:03:45;97917.03;;;22.76
64394;BMP280;50712;49.506;10.400;2022-07-01T02:04:17;97925.38;;;22.76
64394;BMP280;50712;49.506;10.400;2022-07-01T02:04:48;97931.69;;;22.76
64394;BMP280;50712;49.506;10.400;2022-07-01T02:05:19;97940.78;;;22.77
64394;BMP280;50712;49.506;10.400;2022-07-01T02:05:49;97947.09;;;22.77
64394;BMP280;50712;49.506;10.400;2022-07-01T02:06:20;97959.66;;;22.78
64394;BMP280;50712;49.506;10.400;2022-07-01T02:06:51;97968.75;;;22.79
64394;BMP280;50712;49.506;10.400;2022-07-01T02:07:22;97973.78;;;22.80
64394;BMP280;50712;49.506;10.400;2022-07-01T02:07:52;97981.56;;;22.82
64394;BMP280;50712;49.506;10.400;2022-07-01T02:08:22;97982.31;;;22.82
64394;BMP280;50712;49.506;10.400;2022-07-01T02:08:53;97992.16;;;22.83
64394;BMP280;50712;49.506;10.400;2022-07-01T02:09:23;97995.91;;;22.86
64394;BMP280;50712;49.506;10.400;2022-07-01T02:09:54;98000.19;;;22.87
64394;BMP280;50712;49.506;10.400;2022-07-01T02:10:25;97998.91;;;22.88
64394;BMP280;50712;49.506;10.400;2022-07-01T02:10:55;97992.81;;;22.89
64394;BMP280;50712;49.506;10.400;2022-07-01T02:11:25;97999.34;;;22.92
64394;BMP280;50712;49.506;10.400;2022-07-01T02:11:56;98001.59;;;22.93
64394;BMP280;50712;49.506;10.400;2022-07-01T02:12:26;98002.34;;;22.94
64394;BMP280;50712;49.506;10.400;2022-07-01T02:12:57;98002.34;;;22.94
64394;BMP280;50712;49.506;10.400;2022-07-01T02:13:27;98003.06;;;22.94
64394;BMP280;50712;49.506;10.400;2022-07-01T02:13:58;98003.06;;;22.94
64394;BMP280;50712;49.506;10.400;2022-07-01T02:14:28;97998.81;;;22.93
64394;BMP280;50712;49.506;10.400;2022-07-01T02:14:59;97995.25;;;22.93
64394;BMP280;50712;49.506;10.400;2022-07-01T02:15:29;97999.34;;;22.92
64394;BMP280;50712;49.506;10.400;2022-07-01T02:16:00;97995.81;;;22.91
64394;BMP280;50712;49.506;10.400;2022-07-01T02:16:31;97979.66;;;22.90
64394;BMP280;50712;49.506;10.400;2022-07-01T02:17:02;97994.81;;;22.89
64394;BMP280;50712;49.506;10.400;2022-07-01T02:17:33;97989.84;;;22.87
64394;BMP280;50712;49.506;10.400;2022-07-01T02:18:03;97993.88;;;22.86
64394;BMP280;50712;49.506;10.400;2022-07-01T02:18:35;97996.66;;;22.86
64394;BMP280;50712;49.506;10.400;2022-07-01T02:19:06;98003.47;;;22.85
64394;BMP280;50712;49.506;10.400;2022-07-01T02:19:36;98005.53;;;22.85
64394;BMP280;50712;49.506;10.400;2022-07-01T02:20:07;98011.09;;;22.85
64394;BMP280;50712;49.506;10.400;2022-07-01T02:20:38;98013.88;;;22.85
64394;BMP280;50712;49.506;10.400;2022-07-01T02:21:08;98020.72;;;22.84
64394;BMP280;50712;49.506;10.400;2022-07-01T02:21:38;98031.25;;;22.85
64394;BMP280;50712;49.506;10.400;2022-07-01T02:22:09;98027.22;;;22.86
64394;BMP280;50712;49.506;10.400;2022-07-01T02:22:39;98027.97;;;22.87
64394;BMP280;50712;49.506;10.400;2022-07-01T02:23:10;98030.00;;;22.86
64394;BMP280;50712;49.506;10.400;2022-07-01T02:23:40;98035.03;;;22.88
64394;BMP280;50712;49.506;10.400;2022-07-01T02:24:10;98030.22;;;22.88
64394;BMP280;50712;49.506;10.400;2022-07-01T02:24:41;98031.72;;;22.89
64394;BMP280;50712;49.506;10.400;2022-07-01T02:25:11;98031.72;;;22.89
64394;BMP280;50712;49.506;10.400;2022-07-01T02:25:42;98026.16;;;22.89
64394;BMP280;50712;49.506;10.400;2022-07-01T02:26:12;98022.09;;;22.90
64394;BMP280;50712;49.506;10.400;2022-07-01T02:26:43;98025.06;;;22.92
64394;BMP280;50712;49.506;10.400;2022-07-01T02:27:13;98019.53;;;22.92
64394;BMP280;50712;49.506;10.400;2022-07-01T02:27:43;98023.06;;;22.93
64394;BMP280;50712;49.506;10.400;2022-07-01T02:28:14;98016.22;;;22.94
64394;BMP280;50712;49.506;10.400;2022-07-01T02:28:44;98012.69;;;22.93
64394;BMP280;50712;49.506;10.400;2022-07-01T02:29:15;98017.50;;;22.93
64394;BMP280;50712;49.506;10.400;2022-07-01T02:29:45;98008.41;;;22.92
64394;BMP280;50712;49.506;10.400;2022-07-01T02:30:15;98006.91;;;22.91
64394;BMP280;50712;49.506;10.400;2022-07-01T02:30:46;97997.84;;;22.91
64394;BMP280;50712;49.506;10.400;2022-07-01T02:31:16;98000.63;;;22.91
64394;BMP280;50712;49.506;10.400;2022-07-01T02:31:47;97996.34;;;22.90
64394;BMP280;50712;49.506;10.400;2022-07-01T02:32:17;97990.78;;;22.90
64394;BMP280;50712;49.506;10.400;2022-07-01T02:32:49;97994.31;;;22.90
64394;BMP280;50712;49.506;10.400;2022-07-01T02:33:19;97994.31;;;22.90
64394;BMP280;50712;49.506;10.400;2022-07-01T02:33:49;97985.97;;;22.90
64394;BMP280;50712;49.506;10.400;2022-07-01T02:34:20;97986.75;;;22.91
64394;BMP280;50712;49.506;10.400;2022-07-01T02:34:50;97979.88;;;22.92
64394;BMP280;50712;49.506;10.400;2022-07-01T02:35:21;97970.78;;;22.91
64394;BMP280;50712;49.506;10.400;2022-07-01T02:35:51;97977.84;;;22.92
64394;BMP280;50712;49.506;10.400;2022-07-01T02:36:22;97969.50;;;22.92
64394;BMP280;50712;49.506;10.400;2022-07-01T02:36:52;97961.16;;;22.92
64394;BMP280;50712;49.506;10.400;2022-07-01T02:37:25;97959.69;;;22.91
64394;BMP280;50712;49.506;10.400;2022-07-01T02:37:55;97960.97;;;22.90
64394;BMP280;50712;49.506;10.400;2022-07-01T02:38:25;97958.69;;;22.89
64394;BMP280;50712;49.506;10.400;2022-07-01T02:38:56;97954.97;;;22.86
64394;BMP280;50712;49.506;10.400;2022-07-01T02:39:26;97948.47;;;22.84
64394;BMP280;50712;49.506;10.400;2022-07-01T02:39:57;97957.31;;;22.82
64394;BMP280;50712;49.506;10.400;2022-07-01T02:40:27;97957.88;;;22.81
64394;BMP280;50712;49.506;10.400;2022-07-01T02:40:57;97958.38;;;22.79
64394;BMP280;50712;49.506;10.400;2022-07-01T02:41:28;97963.19;;;22.79
64394;BMP280;50712;49.506;10.400;2022-07-01T02:41:59;97950.59;;;22.78
64394;BMP280;50712;49.506;10.400;2022-07-01T02:42:47;97962.25;;;22.76
64394;BMP280;50712;49.506;10.400;2022-07-01T02:43:18;97957.94;;;22.75
64394;BMP280;50712;49.506;10.400;2022-07-01T02:43:48;97958.50;;;22.74
64394;BMP280;50712;49.506;10.400;2022-07-01T02:44:18;97968.13;;;22.73
64394;BMP280;50712;49.506;10.400;2022-07-01T02:44:49;97969.91;;;22.70
64394;BMP280;50712;49.506;10.400;2022-07-01T02:45:19;97969.91;;;22.70
64394;BMP280;50712;49.506;10.400;2022-07-01T02:45:50;97968.44;;;22.69
64394;BMP280;50712;49.506;10.400;2022-07-01T02:46:20;97973.22;;;22.69
64394;BMP280;50712;49.506;10.400;2022-07-01T02:46:51;97966.94;;;22.68
64394;BMP280;50712;49.506;10.400;2022-07-01T02:47:21;97976.00;;;22.69
64394;BMP280;50712;49.506;10.400;2022-07-01T02:47:52;97978.56;;;22.67
64394;BMP280;50712;49.506;10.400;2022-07-01T02:48:22;97984.88;;;22.67
64394;BMP280;50712;49.506;10.400;2022-07-01T02:48:52;97984.13;;;22.67
64394;BMP280;50712;49.506;10.400;2022-07-01T02:49:23;97991.19;;;22.68
64394;BMP280;50712;49.506;10.400;2022-07-01T02:49:55;97993.22;;;22.67
64394;BMP280;50712;49.506;10.400;2022-07-01T02:50:25;97991.94;;;22.68
64394;BMP280;50712;49.506;10.400;2022-07-01T02:50:56;97994.72;;;22.68
64394;BMP280;50712;49.506;10.400;2022-07-01T02:51:26;97989.16;;;22.68
64394;BMP280;50712;49.506;10.400;2022-07-01T02:51:57;97996.97;;;22.70
64394;BMP280;50712;49.506;10.400;2022-07-01T02:52:27;97993.44;;;22.69
64394;BMP280;50712;49.506;10.400;2022-07-01T02:52:58;97994.19;;;22.70
64394;BMP280;50712;49.506;10.400;2022-07-01T02:53:28;97985.31;;;22.71
64394;BMP280;50712;49.506;10.400;2022-07-01T02:53:58;97988.84;;;22.72
64394;BMP280;50712;49.506;10.400;2022-07-01T02:54:29;97974.97;;;22.72
64394;BMP280;50712;49.506;10.400;2022-07-01T02:55:00;97975.69;;;22.72
64394;BMP280;50712;49.506;10.400;2022-07-01T02:55:31;97970.13;;;22.72